Flight Track Log - Related Links

Times and Time Zones

All times are in EDT time to prevent confusion due to time zone crossing. See the N865JM flight status page for this flight to view local times or setup timezone preferences in your user account.

Time Position Orientation Groundspeed Altitude Reporting Facility
EDT Latitude Longitude Course Direction KTS MPH feet Rate Location/Type
Wed 07:55:13 PM 39.3253 -107.0486 77° East 250 288 16,400  Level Denver Center
Wed 07:56:15 PM 39.4075 -107.0217 14° North 323 372 16,900 242 Climbing Denver Center
Wed 07:57:17 PM 39.4275 -106.8978 78° East 371 427 16,900 -48 Level Denver Center
Wed 07:58:19 PM 39.4056 -106.7753 103° East 374 430 16,800 -48 Descending Denver Center
Wed 07:59:00 PM 39.3454 -106.1770 77° East  Level Estimated
Wed 07:59:21 PM 39.3800 -106.6314 103° East 358 412 16,800  Level Denver Center
Wed 08:00:00 PM 39.3656 -106.0615 77° East  Level Estimated
Wed 08:00:25 PM 39.3572 -106.5067 103° East 354 407 16,800  Level Denver Center
Wed 08:01:27 PM 39.3381 -106.3772 101° East 360 414 16,800  Level Denver Center
Wed 08:02:29 PM 39.3228 -106.2453 98° East 369 425 16,800 97 Level Denver Center
Wed 08:03:31 PM 39.3036 -106.0911 99° East 369 425 17,000 48 Climbing Denver Center
Wed 08:04:33 PM 39.2856 -105.9600 100° East 370 426 16,900  Descending Denver Center
Wed 08:05:35 PM 39.2350 -105.8467 120° Southeast 365 420 17,000 48 Climbing Denver Center
Wed 08:06:38 PM 39.2214 -105.7150 98° East 370 426 17,000  Level Denver Center
Wed 08:07:40 PM 39.2128 -105.5825 95° East 372 428 17,000  Level Denver Center
Wed 08:08:42 PM 39.2056 -105.4325 94° East 372 428 17,000 -290 Level Denver Center
Wed 08:09:44 PM 39.2331 -105.3106 74° East 369 425 16,400 -919 Descending Denver Center
Wed 08:10:46 PM 39.3325 -105.3019 North 359 413 15,100 -1,016 Descending Denver Center
Wed 08:11:48 PM 39.4269 -105.3131 355° North 322 371 14,300 -968 Descending Denver Center
Wed 08:12:50 PM 39.5139 -105.2889 12° North 323 372 13,100 -629 Descending Denver Center
Wed 08:13:52 PM 39.5944 -105.2614 15° North 307 353 13,000 -484 Descending Denver Center
Wed 08:14:54 PM 39.6319 -105.1619 64° Northeast 286 329 12,100 -1,344 Descending Denver Center
Wed 08:15:57 PM 39.6608 -105.0625 69° East 297 342 10,200 -1,968 Descending Denver Center
Wed 08:16:59 PM 39.6653 -104.9614 87° East 266 306 8,000 -1,258 Descending Denver Center
Wed 08:18:01 PM 39.6617 -104.8856 94° East 208 239 7,600 -774 Descending Denver Center
Wed 08:19:03 PM 39.6219 -104.8531 148° Southeast 177 204 6,400 -871 Descending Denver Center
Wed 08:20:05 PM 39.5853 -104.8519 179° South 135 155 5,800 -581 Descending Denver Center
Wed 08:22:00 PM 39.5701 -104.8493 189° South  Level Estimated
Wed 08:29:00 PM 39.5701 -104.8493 North  Level Estimated

Login

Don't have an account? Register now (free) for customized features, flight alerts, and more!